NCAR-RAP Real-Time Weather Data

Output produced by METARs form (17 January 2019  23:28 UTC)
found at http://weather.rap.ucar.edu/surface/
 
Conditions at: KTYQ observed 17 January 2019  22:55 UTC
Temperature: 0.6°C (33°F)
Dewpoint: 0.6°C (33°F) [RH = 100%]
Pressure (altimeter): 29.97 inches Hg (1015.0 mb)
Winds: from the W (270 degrees) at 5 MPH (4 knots; 2.1 m/s)
Visibility: 0.25 miles (0.40 km)
Ceiling: 100 feet AGL
Clouds: overcast cloud deck at 100 feet AGL
Present Weather: FG  (fog)
KTYQ 172255Z AUTO 27004KT 1/4SM FG OVC001 01/01 A2997 RMK AO2 T00060006